Time;durP1;ratioP1;P1;durP2;ratioP2;P2;SDS_P1;SDS_P2;PMS_P1;PMS_P2;Temp;Humidity;BMP_temperature;BMP_pressure;BME280_temperature;BME280_humidity;BME280_pressure;Samples;Min_cycle;Max_cycle;Signal;HPM_P1;HPM_P2
2022/01/09 00:00:13;;;;;;;3.47;1.80;;;;;;;3.10;76.74;98783.00;6047919;28;20026;-73
2022/01/09 00:03:08;;;;;;;7.75;2.08;;;;;;;3.08;76.87;98771.81;6049659;28;20299;-72
2022/01/09 00:06:04;;;;;;;4.80;1.88;;;;;;;3.10;77.31;98780.38;6046834;28;20037;-74
2022/01/09 00:09:00;;;;;;;5.28;1.75;;;;;;;3.14;76.69;98766.84;6048986;28;20030;-74
2022/01/09 00:11:55;;;;;;;8.07;1.60;;;;;;;3.27;76.83;98769.91;6046726;28;20040;-74
2022/01/09 00:14:51;;;;;;;6.53;1.93;;;;;;;3.32;75.84;98765.06;6048271;28;20528;-73
2022/01/09 00:17:46;;;;;;;4.35;2.03;;;;;;;3.26;77.05;98760.41;6049568;28;20473;-73
2022/01/09 00:20:42;;;;;;;3.57;1.20;;;;;;;3.32;76.39;98751.97;6048259;28;20037;-73
2022/01/09 00:23:37;;;;;;;4.67;2.10;;;;;;;3.31;76.87;98749.50;6048740;28;20033;-73
2022/01/09 00:26:32;;;;;;;6.93;1.50;;;;;;;3.32;76.98;98741.50;6048313;28;20881;-73
2022/01/09 00:29:28;;;;;;;4.53;1.60;;;;;;;3.36;76.58;98734.16;6048658;28;20034;-72
2022/01/09 00:32:24;;;;;;;5.77;1.53;;;;;;;3.45;76.40;98725.41;6048369;28;20033;-73
2022/01/09 00:35:19;;;;;;;4.20;1.70;;;;;;;3.45;77.08;98726.22;6048605;28;20026;-74
2022/01/09 00:38:14;;;;;;;3.80;1.40;;;;;;;3.55;75.69;98732.22;6049179;28;20065;-75
2022/01/09 00:41:10;;;;;;;3.00;1.20;;;;;;;3.53;76.00;98713.19;6047543;28;20048;-74
2022/01/09 00:44:05;;;;;;;4.33;1.50;;;;;;;3.54;75.64;98714.84;6048549;28;20276;-73
2022/01/09 00:47:00;;;;;;;3.65;1.33;;;;;;;3.52;75.65;98697.63;6041095;28;20038;-74
2022/01/09 00:49:56;;;;;;;3.07;1.10;;;;;;;3.48;76.44;98689.25;6052672;28;20069;-74
2022/01/09 00:52:51;;;;;;;0.77;0.60;;;;;;;3.50;75.61;98692.56;6053047;28;20040;-72
2022/01/09 00:55:46;;;;;;;3.87;1.37;;;;;;;3.56;76.02;98685.88;6053308;28;20377;-73
2022/01/09 00:58:42;;;;;;;3.43;1.20;;;;;;;3.56;76.13;98697.16;6053053;28;20393;-74
2022/01/09 01:01:38;;;;;;;1.65;1.00;;;;;;;3.50;76.15;98686.50;6049339;28;20030;-74
2022/01/09 01:04:33;;;;;;;2.27;1.20;;;;;;;3.41;76.91;98680.34;6052885;28;20047;-73
2022/01/09 01:07:28;;;;;;;3.43;1.53;;;;;;;3.21;77.53;98675.41;6052983;28;20029;-75
2022/01/09 01:10:24;;;;;;;4.43;1.50;;;;;;;3.24;77.49;98670.69;6052274;28;20549;-75
2022/01/09 01:13:19;;;;;;;4.57;1.47;;;;;;;3.18;77.71;98671.28;6053172;28;20279;-73
2022/01/09 01:16:14;;;;;;;3.50;1.60;;;;;;;3.18;77.83;98670.50;6052708;28;20352;-74
2022/01/09 01:19:11;;;;;;;3.27;1.60;;;;;;;3.11;78.29;98664.19;6051975;28;20334;-73
2022/01/09 01:22:06;;;;;;;5.75;1.17;;;;;;;3.04;78.31;98663.97;6052113;28;20061;-73
2022/01/09 01:25:03;;;;;;;4.30;1.30;;;;;;;3.08;78.59;98649.59;6052516;28;20030;-75
2022/01/09 01:27:59;;;;;;;3.40;1.05;;;;;;;3.34;77.62;98655.72;6052364;28;20481;-74
2022/01/09 01:30:54;;;;;;;3.07;1.30;;;;;;;3.61;76.77;98633.84;6051607;28;20036;-74
2022/01/09 01:33:49;;;;;;;3.63;1.03;;;;;;;3.66;76.32;98633.38;6052794;28;20038;-74
2022/01/09 01:36:45;;;;;;;1.37;0.73;;;;;;;3.68;76.48;98631.41;6051599;28;20045;-74
2022/01/09 01:39:40;;;;;;;3.93;1.27;;;;;;;3.85;75.39;98633.16;6052411;28;20109;-73
2022/01/09 01:42:35;;;;;;;2.37;1.00;;;;;;;3.86;75.99;98621.72;6052019;28;20065;-72
2022/01/09 01:45:31;;;;;;;3.00;1.13;;;;;;;3.90;75.83;98621.25;6046067;28;20273;-74
2022/01/09 01:48:26;;;;;;;2.37;1.17;;;;;;;3.92;75.29;98618.47;6041599;28;20282;-72
2022/01/09 01:51:21;;;;;;;3.97;1.10;;;;;;;3.94;75.32;98619.16;6051417;28;20492;-75
2022/01/09 01:54:19;;;;;;;2.30;0.80;;;;;;;3.92;75.91;98614.03;6050446;28;20084;-73
2022/01/09 01:57:14;;;;;;;2.70;0.88;;;;;;;3.88;76.08;98601.41;6051988;28;20092;-73
2022/01/09 02:00:13;;;;;;;3.42;1.63;;;;;;;3.45;77.70;98600.47;6050037;28;20041;-72
2022/01/09 02:03:11;;;;;;;4.30;1.63;;;;;;;3.25;78.37;98599.03;6050967;28;20097;-75
2022/01/09 02:06:07;;;;;;;5.30;1.70;;;;;;;3.67;77.09;98595.72;6051742;28;20068;-74
2022/01/09 02:09:05;;;;;;;4.20;1.33;;;;;;;3.81;75.98;98588.09;6051309;28;20063;-73
2022/01/09 02:12:00;;;;;;;2.83;0.95;;;;;;;3.84;75.79;98579.09;6042543;28;20095;-74
2022/01/09 02:14:56;;;;;;;3.13;1.27;;;;;;;3.96;76.19;98572.63;6050852;28;20477;-73
2022/01/09 02:17:51;;;;;;;6.67;1.53;;;;;;;4.00;75.19;98568.69;6051429;28;20273;-74
2022/01/09 02:20:47;;;;;;;3.33;1.27;;;;;;;3.99;75.88;98573.13;6050480;28;20436;-74
2022/01/09 02:23:45;;;;;;;5.90;1.52;;;;;;;4.05;75.86;98569.84;6051583;28;20381;-73
2022/01/09 02:26:41;;;;;;;4.68;1.45;;;;;;;4.08;75.83;98576.56;6051469;28;20026;-74
2022/01/09 02:29:36;;;;;;;4.88;1.52;;;;;;;4.04;75.87;98570.84;6051234;28;20056;-75
2022/01/09 02:32:31;;;;;;;6.83;1.50;;;;;;;4.09;75.56;98573.00;6050343;28;20044;-74
2022/01/09 02:35:27;;;;;;;4.53;1.20;;;;;;;4.09;76.17;98562.50;6051191;28;20022;-73
2022/01/09 02:38:22;;;;;;;2.03;0.80;;;;;;;4.15;75.65;98567.13;6050860;28;20048;-72
2022/01/09 02:41:18;;;;;;;2.97;1.43;;;;;;;4.17;75.55;98565.16;6049729;28;20037;-74
2022/01/09 02:44:13;;;;;;;6.40;1.42;;;;;;;4.19;74.99;98568.44;6050546;28;20676;-75
2022/01/09 02:47:09;;;;;;;2.23;1.00;;;;;;;4.20;75.21;98554.34;6043315;28;20036;-72
2022/01/09 02:50:28;;;;;;;2.38;1.08;;;;;;;4.15;75.76;98551.38;6046686;28;20053;-74
2022/01/09 02:53:23;;;;;;;5.07;1.10;;;;;;;4.27;75.09;98550.09;6048750;28;20069;-73
2022/01/09 02:56:18;;;;;;;4.27;1.40;;;;;;;4.21;75.49;98556.81;6049623;28;20041;-75
2022/01/09 02:59:14;;;;;;;3.90;1.50;;;;;;;4.18;75.96;98545.81;6050338;28;20272;-73
2022/01/09 03:02:09;;;;;;;2.67;1.33;;;;;;;4.26;75.65;98543.22;6050002;28;20058;-74
2022/01/09 03:05:04;;;;;;;1.43;0.90;;;;;;;4.25;75.57;98536.31;6050427;28;20025;-74
2022/01/09 03:08:00;;;;;;;2.28;0.70;;;;;;;4.25;75.85;98535.50;6049985;28;20029;-73
2022/01/09 03:10:56;;;;;;;3.83;1.23;;;;;;;4.30;75.89;98535.84;6048882;28;20067;-74
2022/01/09 03:13:51;;;;;;;2.78;1.00;;;;;;;4.25;76.12;98522.38;6049919;28;20044;-72
2022/01/09 03:16:47;;;;;;;4.13;1.30;;;;;;;4.24;76.54;98526.81;6050775;28;20049;-74
2022/01/09 03:19:42;;;;;;;2.20;1.00;;;;;;;4.28;76.30;98520.28;6049056;28;20041;-74
2022/01/09 03:22:37;;;;;;;2.07;0.70;;;;;;;4.31;75.95;98521.75;6047833;28;20500;-72
2022/01/09 03:25:33;;;;;;;1.57;0.93;;;;;;;4.35;76.32;98520.47;6050256;28;20061;-74
2022/01/09 03:28:28;;;;;;;3.85;1.20;;;;;;;4.34;76.03;98517.00;6049485;28;20034;-73
2022/01/09 03:31:24;;;;;;;4.72;0.95;;;;;;;4.36;76.59;98508.97;6049531;28;20021;-74
2022/01/09 03:34:19;;;;;;;3.23;0.87;;;;;;;4.34;76.31;98509.16;6049515;28;20112;-74
2022/01/09 03:37:14;;;;;;;2.03;0.80;;;;;;;4.35;75.59;98510.75;6050042;28;20044;-74
2022/01/09 03:40:13;;;;;;;1.20;0.70;;;;;;;4.33;76.28;98512.75;6049780;28;20049;-72
2022/01/09 03:43:08;;;;;;;2.58;0.70;;;;;;;4.32;76.70;98508.47;6051177;28;20623;-71
2022/01/09 03:46:03;;;;;;;1.50;0.70;;;;;;;4.29;77.13;98515.84;6048942;28;20034;-71
2022/01/09 03:48:58;;;;;;;2.37;1.00;;;;;;;4.23;78.19;98517.31;6040452;28;20065;-71
2022/01/09 03:51:56;;;;;;;1.20;0.67;;;;;;;4.20;77.89;98512.38;6046510;28;20060;-71
2022/01/09 03:54:51;;;;;;;9.65;1.73;;;;;;;4.27;77.83;98513.38;6049313;28;20034;-73
2022/01/09 03:57:47;;;;;;;3.27;1.10;;;;;;;4.21;78.53;98506.97;6049717;28;20469;-72
2022/01/09 04:00:42;;;;;;;5.75;1.38;;;;;;;4.11;79.01;98508.91;6048302;28;20129;-72
2022/01/09 04:03:38;;;;;;;2.67;1.13;;;;;;;4.18;78.85;98506.47;6048108;28;20038;-73
2022/01/09 04:06:33;;;;;;;3.35;1.38;;;;;;;4.06;80.35;98520.84;6049333;28;20488;-73
2022/01/09 04:09:43;;;;;;;2.53;0.93;;;;;;;4.01;80.27;98513.47;6049727;28;20056;-72
2022/01/09 04:12:47;;;;;;;3.88;1.50;;;;;;;3.98;80.38;98519.03;6041068;28;20787;-72
2022/01/09 04:15:47;;;;;;;4.15;1.20;;;;;;;3.88;81.17;98528.84;6049350;28;20477;-71
2022/01/09 04:18:43;;;;;;;2.33;1.10;;;;;;;3.29;82.88;98536.72;6048876;28;20040;-73
2022/01/09 04:21:41;;;;;;;2.73;1.37;;;;;;;2.95;83.93;98534.00;6048151;28;20148;-72
2022/01/09 04:24:36;;;;;;;3.38;1.35;;;;;;;2.84;84.53;98536.84;6053225;28;20288;-73
2022/01/09 04:27:31;;;;;;;1.63;1.00;;;;;;;2.76;85.79;98537.59;6053343;28;20473;-72
2022/01/09 04:30:27;;;;;;;7.57;1.17;;;;;;;2.67;86.51;98540.28;6049677;28;20069;-72
2022/01/09 04:33:22;;;;;;;2.60;1.47;;;;;;;2.62;86.29;98539.91;6049456;28;20265;-71
2022/01/09 04:36:17;;;;;;;3.33;1.47;;;;;;;2.58;86.79;98533.34;6054150;28;20433;-72
2022/01/09 04:39:13;;;;;;;4.57;1.40;;;;;;;2.52;87.60;98541.78;6053519;28;20280;-72
2022/01/09 04:42:09;;;;;;;4.00;1.77;;;;;;;2.52;87.81;98550.47;6052725;28;20507;-72
2022/01/09 04:45:07;;;;;;;2.85;1.30;;;;;;;2.48;87.78;98550.88;6053697;28;20432;-71
2022/01/09 04:48:06;;;;;;;4.97;2.10;;;;;;;2.42;88.85;98558.34;6046219;28;20501;-72
2022/01/09 04:51:01;;;;;;;3.17;1.75;;;;;;;2.36;88.73;98548.47;6052095;28;20038;-71
2022/01/09 04:53:56;;;;;;;3.85;1.52;;;;;;;2.34;89.07;98555.66;6053209;28;20040;-72
2022/01/09 04:56:52;;;;;;;3.73;2.00;;;;;;;2.33;89.78;98564.50;6053133;28;20030;-72
2022/01/09 04:59:47;;;;;;;5.00;1.83;;;;;;;2.36;90.03;98552.91;6052832;28;20438;-72
2022/01/09 05:02:43;;;;;;;5.80;2.10;;;;;;;2.43;90.33;98556.56;6052786;28;20280;-71
2022/01/09 05:05:39;;;;;;;4.37;1.70;;;;;;;2.43;89.61;98559.19;6052879;28;20037;-73
2022/01/09 05:08:34;;;;;;;4.07;2.33;;;;;;;2.42;90.45;98554.13;6052748;28;20107;-73
2022/01/09 05:11:29;;;;;;;3.55;1.45;;;;;;;2.38;90.55;98554.41;6051997;28;20037;-71
2022/01/09 05:14:25;;;;;;;4.17;1.70;;;;;;;2.50;90.58;98562.03;6052571;28;20037;-72
2022/01/09 05:17:20;;;;;;;5.23;1.60;;;;;;;2.50;90.74;98560.22;6053402;28;20152;-73
2022/01/09 05:20:15;;;;;;;4.37;1.40;;;;;;;2.59;90.94;98568.97;6051836;28;20037;-73
2022/01/09 05:23:11;;;;;;;3.57;1.40;;;;;;;2.66;90.24;98554.34;6052023;28;20072;-73
2022/01/09 05:26:06;;;;;;;1.75;0.85;;;;;;;2.85;88.87;98554.19;6051655;28;20069;-72
2022/01/09 05:29:02;;;;;;;2.00;0.90;;;;;;;2.88;89.28;98573.03;6052167;28;20519;-73
2022/01/09 05:31:57;;;;;;;3.93;1.73;;;;;;;2.83;89.30;98566.59;6051979;28;20105;-72
2022/01/09 05:34:52;;;;;;;3.87;1.27;;;;;;;2.85;89.30;98570.69;6052488;28;20076;-72
2022/01/09 05:37:47;;;;;;;3.57;1.13;;;;;;;2.83;88.58;98566.59;6051446;28;20033;-73
2022/01/09 05:40:43;;;;;;;3.97;1.30;;;;;;;2.84;88.55;98578.72;6051622;28;20044;-73
2022/01/09 05:43:39;;;;;;;2.10;1.00;;;;;;;2.75;88.77;98580.44;6051500;28;20037;-72
2022/01/09 05:46:35;;;;;;;1.85;1.02;;;;;;;2.70;88.92;98584.47;6052536;28;20034;-72
2022/01/09 05:49:30;;;;;;;2.53;1.30;;;;;;;2.66;89.50;98556.97;6051715;28;20044;-72
2022/01/09 05:52:25;;;;;;;2.63;1.30;;;;;;;2.67;89.65;98582.13;6048087;28;20029;-72
2022/01/09 05:55:21;;;;;;;1.53;0.97;;;;;;;2.64;89.99;98587.66;6051857;28;20044;-72
2022/01/09 05:58:16;;;;;;;2.40;1.10;;;;;;;2.65;89.69;98584.09;6051502;28;20440;-72
2022/01/09 06:01:11;;;;;;;1.80;0.90;;;;;;;2.60;89.46;98586.34;6051048;28;20042;-72
2022/01/09 06:04:07;;;;;;;1.83;1.00;;;;;;;2.60;89.81;98592.41;6051617;28;20295;-72
2022/01/09 06:07:02;;;;;;;2.67;1.30;;;;;;;2.62;89.82;98593.06;6051673;28;20057;-72
2022/01/09 06:09:57;;;;;;;2.40;1.40;;;;;;;2.59;89.73;98589.91;6050698;28;20032;-72
2022/01/09 06:12:53;;;;;;;4.23;1.77;;;;;;;2.55;90.46;98588.56;6051367;28;20037;-71
2022/01/09 06:15:48;;;;;;;2.33;1.33;;;;;;;2.55;89.94;98589.41;6050919;28;20030;-72
2022/01/09 06:18:43;;;;;;;2.50;1.30;;;;;;;2.52;90.33;98599.31;6051422;28;20032;-72
2022/01/09 06:21:38;;;;;;;3.97;1.43;;;;;;;2.51;90.03;98606.34;6050147;28;20030;-72
2022/01/09 06:24:34;;;;;;;2.73;1.40;;;;;;;2.48;89.96;98611.03;6051053;28;20045;-72
2022/01/09 06:27:29;;;;;;;2.10;1.30;;;;;;;2.42;90.19;98608.03;6051370;28;20037;-72
2022/01/09 06:30:24;;;;;;;2.58;1.17;;;;;;;2.42;90.43;98598.56;6048289;28;20033;-72
2022/01/09 06:33:20;;;;;;;3.90;1.17;;;;;;;2.37;90.81;98612.91;6051296;28;20037;-71
2022/01/09 06:36:15;;;;;;;3.57;1.47;;;;;;;2.34;91.22;98625.44;6050770;28;20045;-72
2022/01/09 06:39:10;;;;;;;3.13;1.47;;;;;;;2.30;91.01;98617.06;6050360;28;20084;-72
2022/01/09 06:42:06;;;;;;;3.63;1.33;;;;;;;2.29;91.01;98623.25;6050456;28;20393;-71
2022/01/09 06:45:02;;;;;;;3.05;1.58;;;;;;;2.25;91.08;98624.53;6050252;28;20034;-73
2022/01/09 06:47:58;;;;;;;4.95;1.80;;;;;;;2.26;91.36;98631.41;6050661;28;20030;-73
2022/01/09 06:50:53;;;;;;;4.47;2.03;;;;;;;2.20;91.22;98631.97;6040804;28;20029;-73
2022/01/09 06:53:48;;;;;;;3.03;1.87;;;;;;;2.19;91.61;98640.78;6049123;28;20121;-73
2022/01/09 06:56:44;;;;;;;3.30;1.80;;;;;;;2.17;91.41;98650.59;6050087;28;20091;-72
2022/01/09 06:59:39;;;;;;;2.77;1.70;;;;;;;2.11;91.45;98645.91;6050698;28;20272;-73
2022/01/09 07:02:34;;;;;;;3.03;1.67;;;;;;;2.12;91.87;98655.38;6049404;28;20042;-73
2022/01/09 07:05:29;;;;;;;4.57;2.40;;;;;;;2.10;91.86;98646.03;6049329;28;20030;-72
2022/01/09 07:08:27;;;;;;;3.97;1.93;;;;;;;2.13;92.06;98657.06;6049757;28;20034;-72
2022/01/09 07:11:22;;;;;;;3.53;1.83;;;;;;;2.10;92.31;98662.56;6049026;28;20630;-73
2022/01/09 07:14:17;;;;;;;4.07;2.30;;;;;;;2.06;92.49;98661.22;6050702;28;20033;-73
2022/01/09 07:17:13;;;;;;;4.18;1.80;;;;;;;2.07;92.46;98668.06;6048853;28;20034;-72
2022/01/09 07:20:09;;;;;;;6.25;1.60;;;;;;;2.06;91.94;98678.69;6049413;28;20041;-73
2022/01/09 07:23:04;;;;;;;4.00;2.00;;;;;;;2.02;92.28;98675.53;6042322;28;20658;-72
2022/01/09 07:25:59;;;;;;;4.50;2.00;;;;;;;2.02;93.01;98688.59;6050140;28;20041;-72
2022/01/09 07:28:55;;;;;;;3.87;1.87;;;;;;;2.01;92.69;98689.53;6049736;28;20034;-72
2022/01/09 07:31:53;;;;;;;4.40;2.00;;;;;;;2.03;92.75;98694.66;6049245;28;20034;-73
2022/01/09 07:34:48;;;;;;;2.35;1.48;;;;;;;2.05;92.55;98696.16;6044214;28;20037;-73
2022/01/09 07:37:43;;;;;;;3.63;2.10;;;;;;;2.02;92.48;98696.44;6043605;28;20054;-73
2022/01/09 07:40:39;;;;;;;3.33;1.70;;;;;;;2.02;92.38;98701.66;6045151;28;20335;-72
2022/01/09 07:43:34;;;;;;;3.47;1.67;;;;;;;2.05;92.77;98711.84;6049808;28;20037;-73
2022/01/09 07:46:29;;;;;;;4.80;1.77;;;;;;;2.04;92.31;98710.16;6041084;28;20080;-72
2022/01/09 07:49:26;;;;;;;3.03;1.60;;;;;;;2.03;92.80;98712.94;6048621;28;20057;-72
2022/01/09 07:52:21;;;;;;;2.50;1.50;;;;;;;2.02;92.96;98719.13;6049174;28;20038;-73
2022/01/09 07:55:19;;;;;;;1.40;1.00;;;;;;;2.02;92.48;98727.78;6049375;28;20064;-73
2022/01/09 07:58:14;;;;;;;3.03;1.42;;;;;;;1.97;92.62;98732.63;6046899;28;20041;-73
2022/01/09 08:01:10;;;;;;;2.47;1.40;;;;;;;2.01;92.42;98739.19;6048919;28;20061;-72
2022/01/09 08:04:05;;;;;;;2.43;1.40;;;;;;;1.96;92.51;98749.25;6048863;28;20452;-72
2022/01/09 08:07:01;;;;;;;2.00;1.20;;;;;;;1.90;92.74;98760.28;6049458;28;20034;-72
2022/01/09 08:09:56;;;;;;;3.63;1.73;;;;;;;1.87;92.72;98759.72;6049387;28;20037;-73
2022/01/09 08:12:51;;;;;;;3.00;1.57;;;;;;;1.81;93.30;98755.88;6048315;28;20456;-73
2022/01/09 08:15:47;;;;;;;2.47;1.37;;;;;;;1.78;93.36;98762.22;6041226;28;20284;-73
2022/01/09 08:18:42;;;;;;;2.17;1.08;;;;;;;1.80;93.27;98769.91;6041448;28;20060;-72
2022/01/09 08:21:38;;;;;;;2.70;1.40;;;;;;;1.76;93.04;98771.16;6047837;28;20030;-72
2022/01/09 08:24:34;;;;;;;4.70;1.57;;;;;;;1.66;93.10;98765.09;6048842;28;20038;-72
2022/01/09 08:27:29;;;;;;;2.53;1.40;;;;;;;1.58;93.06;98775.41;6048790;28;20040;-72
2022/01/09 08:30:25;;;;;;;1.97;1.27;;;;;;;1.50;93.26;98777.88;6045230;28;20034;-72
2022/01/09 08:33:24;;;;;;;2.13;1.30;;;;;;;1.42;93.63;98789.00;6039784;28;20292;-71
2022/01/09 08:36:19;;;;;;;2.50;1.38;;;;;;;1.48;93.55;98795.47;6048692;28;20330;-71
2022/01/09 08:39:14;;;;;;;3.77;1.90;;;;;;;1.33;93.97;98804.69;6047478;28;20038;-71
2022/01/09 08:42:10;;;;;;;2.40;1.27;;;;;;;1.23;93.55;98791.59;6047266;28;20038;-70
2022/01/09 08:45:06;;;;;;;3.13;1.35;;;;;;;1.24;93.85;98802.88;6048478;28;20041;-71
2022/01/09 08:48:01;;;;;;;2.70;1.33;;;;;;;1.28;94.48;98814.69;6048273;28;20034;-71
2022/01/09 08:50:56;;;;;;;3.60;1.73;;;;;;;1.23;94.00;98815.09;6040742;28;20477;-71
2022/01/09 08:53:52;;;;;;;2.47;1.40;;;;;;;1.25;94.68;98828.81;6048735;28;20046;-71
2022/01/09 08:56:47;;;;;;;2.57;1.30;;;;;;;1.25;94.61;98830.63;6049377;28;20037;-72
2022/01/09 08:59:42;;;;;;;3.07;1.70;;;;;;;1.19;94.59;98835.44;6048961;28;20536;-72
2022/01/09 09:02:38;;;;;;;2.83;1.50;;;;;;;1.27;94.67;98839.97;6048671;28;20477;-71
2022/01/09 09:05:33;;;;;;;10.13;1.87;;;;;;;1.26;94.98;98833.09;6037759;28;20284;-71
2022/01/09 09:08:28;;;;;;;2.63;1.20;;;;;;;1.28;94.39;98835.59;6048405;28;20021;-72
2022/01/09 09:11:24;;;;;;;3.93;1.47;;;;;;;1.36;94.82;98843.56;6052060;28;20327;-71
2022/01/09 09:14:20;;;;;;;2.93;1.60;;;;;;;1.41;94.31;98841.38;6052446;28;20022;-71
2022/01/09 09:17:16;;;;;;;3.38;1.70;;;;;;;1.44;95.34;98846.34;6053081;28;20040;-71
2022/01/09 09:20:11;;;;;;;4.07;1.70;;;;;;;1.42;94.79;98854.28;6045164;28;20038;-72
2022/01/09 09:23:07;;;;;;;3.13;1.73;;;;;;;1.44;95.21;98864.63;6052122;28;20103;-71
2022/01/09 09:26:02;;;;;;;3.83;2.00;;;;;;;1.48;95.15;98876.44;6056809;28;20061;-71
2022/01/09 09:28:57;;;;;;;3.08;1.50;;;;;;;1.50;95.03;98882.34;6076559;28;20022;-71
2022/01/09 09:31:53;;;;;;;2.90;1.47;;;;;;;1.43;94.89;98886.44;6073860;28;20447;-72
2022/01/09 09:34:48;;;;;;;3.07;1.40;;;;;;;1.37;95.23;98892.19;6063868;28;20507;-70
2022/01/09 09:37:43;;;;;;;4.30;1.40;;;;;;;1.26;94.89;98900.13;6074748;28;20030;-70
2022/01/09 09:40:39;;;;;;;2.10;1.20;;;;;;;1.16;95.18;98898.31;6072926;28;20041;-71
2022/01/09 09:43:35;;;;;;;2.63;1.27;;;;;;;0.99;95.04;98904.16;6076352;28;20030;-71
2022/01/09 09:46:32;;;;;;;2.28;1.23;;;;;;;0.94;95.13;98906.34;6073501;28;20501;-70
2022/01/09 09:49:27;;;;;;;2.90;1.77;;;;;;;0.93;95.28;98904.66;6069406;28;20038;-71
2022/01/09 09:52:23;;;;;;;4.87;1.70;;;;;;;0.89;94.92;98916.34;6075075;28;20485;-71
2022/01/09 09:55:19;;;;;;;3.20;1.58;;;;;;;0.88;95.20;98921.66;6076223;28;20184;-71
2022/01/09 09:58:15;;;;;;;3.42;1.73;;;;;;;0.79;95.55;98923.25;6075334;28;20032;-71
2022/01/09 10:01:23;;;;;;;2.95;1.38;;;;;;;0.82;95.18;98933.44;6073531;28;20037;-70
2022/01/09 10:04:18;;;;;;;3.00;1.58;;;;;;;0.83;95.19;98940.31;6074558;28;20528;-71
2022/01/09 10:07:22;;;;;;;2.50;1.33;;;;;;;0.81;95.04;98939.63;6073881;28;20032;-70
2022/01/09 10:10:19;;;;;;;2.15;1.30;;;;;;;0.80;95.20;98944.97;6071793;28;20376;-70
2022/01/09 10:13:17;;;;;;;4.38;1.77;;;;;;;0.80;95.09;98937.97;6065539;28;20059;-70
2022/01/09 10:16:14;;;;;;;3.05;1.52;;;;;;;0.98;95.89;98944.22;6074965;28;20026;-71
2022/01/09 10:19:09;;;;;;;3.03;1.80;;;;;;;1.05;95.46;98950.59;6073003;28;20029;-70
2022/01/09 10:22:05;;;;;;;4.20;1.77;;;;;;;1.15;95.94;98954.09;6072282;28;20029;-72
2022/01/09 10:25:22;;;;;;;7.67;2.40;;;;;;;1.17;95.49;98962.59;6074754;28;20280;-70
2022/01/09 10:28:18;;;;;;;4.85;2.20;;;;;;;1.19;96.02;98947.66;6064009;28;20030;-70
2022/01/09 10:31:18;;;;;;;5.57;2.20;;;;;;;1.34;95.35;98957.72;6073708;28;20040;-70
2022/01/09 10:34:16;;;;;;;5.82;2.47;;;;;;;1.37;96.03;98960.91;6074389;28;20033;-70
2022/01/09 10:37:17;;;;;;;6.55;3.10;;;;;;;1.48;96.13;98965.22;6074133;28;20439;-71
2022/01/09 10:40:28;;;;;;;7.35;3.45;;;;;;;1.52;96.12;98977.06;6070311;28;20458;-71
2022/01/09 10:43:33;;;;;;;13.68;8.18;;;;;;;1.66;95.42;98976.66;6072265;28;20388;-71
2022/01/09 10:46:31;;;;;;;11.52;6.65;;;;;;;1.73;95.61;98972.59;6071486;28;20112;-71
2022/01/09 10:49:37;;;;;;;5.43;2.72;;;;;;;1.81;95.77;98975.34;6074626;28;20033;-72
2022/01/09 10:52:38;;;;;;;9.23;5.20;;;;;;;1.74;95.76;98975.06;6073229;28;20063;-70
2022/01/09 10:55:33;;;;;;;6.93;2.55;;;;;;;1.90;95.82;98974.56;6073034;28;20026;-71
2022/01/09 10:58:30;;;;;;;6.73;3.10;;;;;;;1.96;95.54;98971.38;6070876;28;20042;-71
2022/01/09 11:01:33;;;;;;;5.22;3.42;;;;;;;2.04;96.13;98986.41;6070627;28;20036;-72
2022/01/09 11:04:29;;;;;;;7.22;3.67;;;;;;;2.14;95.85;98982.84;6072829;28;20026;-72
2022/01/09 11:07:24;;;;;;;4.20;2.28;;;;;;;2.18;95.39;98983.38;6064829;28;20045;-72
2022/01/09 11:10:21;;;;;;;7.07;2.60;;;;;;;2.16;95.93;98991.38;6073310;28;20033;-72
2022/01/09 11:13:16;;;;;;;3.47;1.67;;;;;;;2.23;95.84;98992.47;6061789;28;20030;-73
2022/01/09 11:19:27;;;;;;;8.13;2.53;;;;;;;2.03;95.69;98993.44;6073598;28;20034;-72
2022/01/09 11:22:22;;;;;;;7.00;2.27;;;;;;;2.09;95.72;99002.53;6073297;28;20033;-72
2022/01/09 11:25:28;;;;;;;6.05;3.08;;;;;;;2.17;95.83;99013.97;6073673;28;20034;-72
2022/01/09 11:28:27;;;;;;;5.18;2.65;;;;;;;2.13;95.69;99003.88;6061270;28;20118;-72
2022/01/09 11:31:38;;;;;;;8.55;3.35;;;;;;;2.24;96.25;99024.69;6068667;28;20473;-72
2022/01/09 11:34:39;;;;;;;4.50;2.22;;;;;;;2.28;95.58;99026.88;6072040;28;20022;-73
2022/01/09 11:37:40;;;;;;;8.27;4.18;;;;;;;2.22;96.31;99030.06;6073250;28;20034;-73
2022/01/09 11:40:38;;;;;;;9.23;3.92;;;;;;;2.23;96.21;99034.31;6071971;28;20029;-72
2022/01/09 11:43:50;;;;;;;5.68;3.20;;;;;;;2.29;95.80;99025.09;6068360;28;20476;-72
2022/01/09 11:47:03;;;;;;;9.60;3.50;;;;;;;2.44;96.51;99031.63;6067652;28;20033;-72
2022/01/09 11:49:58;;;;;;;18.20;7.63;;;;;;;2.54;95.90;99047.31;6072387;28;20543;-73
2022/01/09 11:52:59;;;;;;;18.90;3.80;;;;;;;2.66;96.09;99043.59;6071345;28;20033;-73
2022/01/09 11:55:55;;;;;;;6.75;2.90;;;;;;;2.79;96.45;99034.50;6072807;28;20025;-73
2022/01/09 11:59:19;;;;;;;11.02;3.50;;;;;;;2.92;96.41;99042.06;6070990;28;20041;-73
2022/01/09 12:02:14;;;;;;;12.95;3.05;;;;;;;3.09;96.47;99049.22;6070354;28;20026;-72
2022/01/09 12:05:10;;;;;;;17.48;3.47;;;;;;;3.34;96.54;99046.00;6072889;28;20034;-72
2022/01/09 12:08:08;;;;;;;12.63;3.47;;;;;;;3.50;96.40;99048.03;6072851;28;20468;-72
2022/01/09 12:11:03;;;;;;;14.10;3.40;;;;;;;3.66;96.71;99039.56;6071431;28;20384;-72
2022/01/09 12:13:59;;;;;;;10.43;2.83;;;;;;;3.80;96.94;99046.97;6073406;28;20049;-73
2022/01/09 12:16:54;;;;;;;11.60;2.87;;;;;;;3.87;96.76;99051.50;6072918;28;20044;-73
2022/01/09 12:20:05;;;;;;;13.37;3.13;;;;;;;3.93;96.23;99065.81;6059629;28;20029;-72
2022/01/09 12:23:02;;;;;;;9.80;2.72;;;;;;;3.97;95.83;99068.00;6073181;28;20040;-72
2022/01/09 12:25:57;;;;;;;9.88;2.85;;;;;;;3.96;96.04;99076.84;6068372;28;20038;-72
2022/01/09 12:28:53;;;;;;;10.57;2.75;;;;;;;3.99;96.14;99067.88;6064746;28;20056;-73
2022/01/09 12:31:49;;;;;;;14.13;2.75;;;;;;;4.00;95.88;99080.00;6068919;28;20032;-72
2022/01/09 12:35:10;;;;;;;13.75;3.75;;;;;;;4.05;95.85;99091.69;6070029;28;20025;-72
2022/01/09 12:38:06;;;;;;;10.75;2.83;;;;;;;4.06;95.90;99097.78;6067923;28;20038;-72
2022/01/09 12:41:07;;;;;;;16.05;2.53;;;;;;;4.07;95.95;99113.38;6070633;28;20029;-73
2022/01/09 12:44:08;;;;;;;12.20;3.15;;;;;;;4.05;95.51;99107.44;6074947;28;20075;-72
2022/01/09 12:47:03;;;;;;;10.82;2.40;;;;;;;4.06;94.93;99108.25;6077102;28;20061;-72
2022/01/09 12:50:01;;;;;;;24.33;3.17;;;;;;;4.04;95.02;99120.69;6076872;28;20025;-73
2022/01/09 12:53:20;;;;;;;16.73;2.58;;;;;;;4.09;95.53;99135.03;6076826;28;20053;-72
2022/01/09 12:56:16;;;;;;;11.80;2.63;;;;;;;4.10;95.07;99126.19;6077221;28;20031;-72
2022/01/09 12:59:13;;;;;;;13.70;2.58;;;;;;;4.07;95.25;99128.28;6077046;28;20052;-72
2022/01/09 13:02:10;;;;;;;9.90;2.40;;;;;;;4.09;95.28;99136.81;6076600;28;20087;-73
2022/01/09 13:05:05;;;;;;;10.70;2.35;;;;;;;4.10;95.89;99144.53;6077043;28;20056;-73
2022/01/09 13:08:01;;;;;;;10.45;2.85;;;;;;;4.08;95.75;99148.28;6072551;28;20090;-72
2022/01/09 13:11:04;;;;;;;7.57;2.20;;;;;;;4.06;95.65;99155.47;6074970;28;20033;-72
2022/01/09 13:14:00;;;;;;;14.13;3.08;;;;;;;4.02;95.13;99154.91;6076223;28;20034;-72
2022/01/09 13:16:58;;;;;;;15.63;2.35;;;;;;;4.04;94.92;99152.16;6076607;28;20559;-72
2022/01/09 13:19:53;;;;;;;11.38;1.90;;;;;;;4.02;95.17;99160.16;6070954;28;20032;-73
2022/01/09 13:22:48;;;;;;;12.97;2.57;;;;;;;4.02;95.05;99175.09;6074429;28;20033;-73
2022/01/09 13:25:45;;;;;;;15.07;2.50;;;;;;;4.07;95.24;99184.19;6075181;28;20095;-72
2022/01/09 13:28:44;;;;;;;14.43;3.22;;;;;;;4.06;94.77;99186.94;6071179;28;20030;-72
2022/01/09 13:31:47;;;;;;;6.63;2.05;;;;;;;4.02;95.09;99180.34;6075070;28;20502;-72
2022/01/09 13:34:43;;;;;;;9.63;2.30;;;;;;;4.07;95.34;99202.56;6063558;28;20052;-72
2022/01/09 13:37:40;;;;;;;17.42;2.90;;;;;;;4.07;95.31;99199.94;6076442;28;20404;-73
2022/01/09 13:40:35;;;;;;;8.98;2.50;;;;;;;4.05;95.13;99212.34;6072748;28;20045;-72
2022/01/09 13:43:31;;;;;;;9.87;3.00;;;;;;;4.04;94.71;99209.88;6074988;28;20029;-72
2022/01/09 13:46:26;;;;;;;10.67;2.90;;;;;;;4.08;94.53;99219.09;6073951;28;20489;-72
2022/01/09 13:49:21;;;;;;;11.07;2.83;;;;;;;4.05;94.76;99227.25;6074914;28;20047;-73
2022/01/09 13:52:22;;;;;;;13.20;3.00;;;;;;;4.04;94.81;99229.06;6075244;28;20092;-72
2022/01/09 13:55:22;;;;;;;16.08;3.28;;;;;;;4.02;94.67;99243.28;6073750;28;20033;-72
2022/01/09 13:58:18;;;;;;;19.65;2.65;;;;;;;4.04;94.98;99257.91;6076170;28;20461;-72
2022/01/09 14:01:13;;;;;;;8.50;2.38;;;;;;;4.00;95.37;99261.75;6071938;28;20039;-72
2022/01/09 14:04:12;;;;;;;12.57;2.50;;;;;;;3.94;94.95;99256.25;6075195;28;20033;-72